Карточка аэропорта UOOO

Внимание!
Информация на этой странице в стадии наполнения.
Если вы не увидели какой-то информации, или заметили неточность - пожалуйста сообщите нам!
Спасибо!
Команда RU-STAFF
Название аэропортаАлыкель
Название аэропорта (англ.)Alykel
Превышение574 ft. (175 m.)
Координаты69°19.02', 87°19.02'
Высота перехода1200m
Эшелон переходаQFE>744:FL60;744>QFE>717:FL70;717>QFE:FL80
Коды ответчика5401-5427
Зона ОрВДКрасноярск РПИ (UNKL)
Данные METARUOOO 012100Z 23004MPS 6000 -SHSN OVC018CB M03/M03 Q1024 R19/31//60 NOSIG RMK QFE751/1002
Проноз погоды (TAF)UOOO 011958Z 0121/0221 21006G13MPS 3200 -SHSN BLSN BKN005 BKN016CB TEMPO 0121/0203 0600 +SHSN BLSN BKN002 BKN011CB BECMG 0203/0206 6000 -SHSN BLSN FEW005 BKN016CB TEMPO 0206/0221 BKN005 BKN013CB
NOTAMshow/hide NOTAM
AWOS   TABLE

Информация о ВПП

ВПП Длина ВПП (м.) Покрытие Курс ВПП Частота ILS
013430Бетон13109.5
193430Бетон193110.3

Диспетчерские позиции

Позывной Наименование органа УВД Частота
UOOO_APPНорильск - Круг120.400
UOOO_GNDНорильск - Руление121.700
UOOO_TWRНорильск - Старт118.300



Спутниковое изображение